sensor_id;sensor_type;location;lat;lon;timestamp;P1;P2;P0
61592;PMS5003;47485;51.378;-1.342;2022-11-20T00:01:55;18;14;
61592;PMS5003;47485;51.378;-1.342;2022-11-20T00:04:27;17;13;
61592;PMS5003;47485;51.378;-1.342;2022-11-20T00:06:54;17;16;
61592;PMS5003;47485;51.378;-1.342;2022-11-20T00:09:22;14;13;
61592;PMS5003;47485;51.378;-1.342;2022-11-20T00:11:50;15;14;
61592;PMS5003;47485;51.378;-1.342;2022-11-20T00:14:17;18;17;
61592;PMS5003;47485;51.378;-1.342;2022-11-20T00:16:45;17;16;
61592;PMS5003;47485;51.378;-1.342;2022-11-20T00:19:12;22;19;
61592;PMS5003;47485;51.378;-1.342;2022-11-20T00:21:39;15;13;
61592;PMS5003;47485;51.378;-1.342;2022-11-20T00:24:08;22;16;
61592;PMS5003;47485;51.378;-1.342;2022-11-20T00:26:35;19;15;
61592;PMS5003;47485;51.378;-1.342;2022-11-20T00:29:02;18;18;
61592;PMS5003;47485;51.378;-1.342;2022-11-20T00:31:29;15;14;
61592;PMS5003;47485;51.378;-1.342;2022-11-20T00:33:56;12;12;
61592;PMS5003;47485;51.378;-1.342;2022-11-20T00:36:24;13;13;
61592;PMS5003;47485;51.378;-1.342;2022-11-20T00:38:52;14;14;
61592;PMS5003;47485;51.378;-1.342;2022-11-20T00:41:19;20;19;
61592;PMS5003;47485;51.378;-1.342;2022-11-20T00:43:47;15;14;
61592;PMS5003;47485;51.378;-1.342;2022-11-20T00:46:15;9;8;
61592;PMS5003;47485;51.378;-1.342;2022-11-20T00:48:43;14;10;
61592;PMS5003;47485;51.378;-1.342;2022-11-20T00:51:12;10;9;
61592;PMS5003;47485;51.378;-1.342;2022-11-20T00:53:41;13;13;
61592;PMS5003;47485;51.378;-1.342;2022-11-20T00:56:09;12;9;
61592;PMS5003;47485;51.378;-1.342;2022-11-20T00:58:37;7;7;
61592;PMS5003;47485;51.378;-1.342;2022-11-20T01:01:06;9;7;
61592;PMS5003;47485;51.378;-1.342;2022-11-20T01:03:35;13;9;
61592;PMS5003;47485;51.378;-1.342;2022-11-20T01:06:04;8;8;
61592;PMS5003;47485;51.378;-1.342;2022-11-20T01:08:33;8;7;
61592;PMS5003;47485;51.378;-1.342;2022-11-20T01:11:01;8;7;
61592;PMS5003;47485;51.378;-1.342;2022-11-20T01:13:30;8;8;
61592;PMS5003;47485;51.378;-1.342;2022-11-20T01:16:01;11;9;
61592;PMS5003;47485;51.378;-1.342;2022-11-20T01:18:28;7;5;
61592;PMS5003;47485;51.378;-1.342;2022-11-20T01:20:55;10;8;
61592;PMS5003;47485;51.378;-1.342;2022-11-20T01:23:21;6;6;
61592;PMS5003;47485;51.378;-1.342;2022-11-20T01:25:48;5;5;
61592;PMS5003;47485;51.378;-1.342;2022-11-20T01:28:15;5;5;
61592;PMS5003;47485;51.378;-1.342;2022-11-20T01:30:42;10;8;
61592;PMS5003;47485;51.378;-1.342;2022-11-20T01:33:09;5;5;
61592;PMS5003;47485;51.378;-1.342;2022-11-20T01:35:35;8;8;
61592;PMS5003;47485;51.378;-1.342;2022-11-20T01:38:02;4;4;
61592;PMS5003;47485;51.378;-1.342;2022-11-20T01:40:29;6;5;
61592;PMS5003;47485;51.378;-1.342;2022-11-20T01:43:01;5;5;
61592;PMS5003;47485;51.378;-1.342;2022-11-20T01:45:49;5;5;
61592;PMS5003;47485;51.378;-1.342;2022-11-20T01:48:22;7;7;
61592;PMS5003;47485;51.378;-1.342;2022-11-20T01:50:51;7;5;
61592;PMS5003;47485;51.378;-1.342;2022-11-20T01:53:20;7;6;
61592;PMS5003;47485;51.378;-1.342;2022-11-20T01:55:52;5;5;
61592;PMS5003;47485;51.378;-1.342;2022-11-20T01:58:22;8;6;
61592;PMS5003;47485;51.378;-1.342;2022-11-20T02:00:52;11;5;
61592;PMS5003;47485;51.378;-1.342;2022-11-20T02:03:19;8;5;
61592;PMS5003;47485;51.378;-1.342;2022-11-20T02:05:49;7;5;
61592;PMS5003;47485;51.378;-1.342;2022-11-20T02:08:21;7;5;
61592;PMS5003;47485;51.378;-1.342;2022-11-20T02:10:50;10;7;
61592;PMS5003;47485;51.378;-1.342;2022-11-20T02:13:17;7;7;
61592;PMS5003;47485;51.378;-1.342;2022-11-20T02:15:44;10;9;
61592;PMS5003;47485;51.378;-1.342;2022-11-20T02:18:11;11;9;
61592;PMS5003;47485;51.378;-1.342;2022-11-20T02:20:42;10;6;
61592;PMS5003;47485;51.378;-1.342;2022-11-20T02:23:15;7;7;
61592;PMS5003;47485;51.378;-1.342;2022-11-20T02:25:48;13;9;
61592;PMS5003;47485;51.378;-1.342;2022-11-20T02:28:17;13;11;
61592;PMS5003;47485;51.378;-1.342;2022-11-20T02:30:44;9;8;
61592;PMS5003;47485;51.378;-1.342;2022-11-20T02:33:12;7;7;
61592;PMS5003;47485;51.378;-1.342;2022-11-20T02:35:41;8;7;
61592;PMS5003;47485;51.378;-1.342;2022-11-20T02:38:10;14;13;
61592;PMS5003;47485;51.378;-1.342;2022-11-20T02:40:37;8;7;
61592;PMS5003;47485;51.378;-1.342;2022-11-20T02:43:04;9;9;
61592;PMS5003;47485;51.378;-1.342;2022-11-20T02:45:30;10;10;
61592;PMS5003;47485;51.378;-1.342;2022-11-20T02:47:57;14;11;
61592;PMS5003;47485;51.378;-1.342;2022-11-20T02:50:23;8;8;
61592;PMS5003;47485;51.378;-1.342;2022-11-20T02:52:51;9;8;
61592;PMS5003;47485;51.378;-1.342;2022-11-20T02:55:18;11;10;
61592;PMS5003;47485;51.378;-1.342;2022-11-20T02:57:45;11;8;
61592;PMS5003;47485;51.378;-1.342;2022-11-20T03:00:13;10;7;
61592;PMS5003;47485;51.378;-1.342;2022-11-20T03:02:40;13;11;
61592;PMS5003;47485;51.378;-1.342;2022-11-20T03:05:07;14;10;
61592;PMS5003;47485;51.378;-1.342;2022-11-20T03:07:35;10;8;
61592;PMS5003;47485;51.378;-1.342;2022-11-20T03:10:03;10;7;
61592;PMS5003;47485;51.378;-1.342;2022-11-20T03:12:31;11;9;
61592;PMS5003;47485;51.378;-1.342;2022-11-20T03:14:58;10;9;
61592;PMS5003;47485;51.378;-1.342;2022-11-20T03:17:25;8;8;
61592;PMS5003;47485;51.378;-1.342;2022-11-20T03:19:52;10;8;
61592;PMS5003;47485;51.378;-1.342;2022-11-20T03:22:19;8;7;
61592;PMS5003;47485;51.378;-1.342;2022-11-20T03:24:46;8;8;
61592;PMS5003;47485;51.378;-1.342;2022-11-20T03:27:13;6;4;
61592;PMS5003;47485;51.378;-1.342;2022-11-20T03:29:40;6;5;
61592;PMS5003;47485;51.378;-1.342;2022-11-20T03:32:07;4;3;
61592;PMS5003;47485;51.378;-1.342;2022-11-20T03:34:34;7;7;
61592;PMS5003;47485;51.378;-1.342;2022-11-20T03:37:01;6;6;
61592;PMS5003;47485;51.378;-1.342;2022-11-20T03:39:27;12;10;
61592;PMS5003;47485;51.378;-1.342;2022-11-20T03:41:54;11;10;
61592;PMS5003;47485;51.378;-1.342;2022-11-20T03:44:21;13;10;
61592;PMS5003;47485;51.378;-1.342;2022-11-20T03:46:48;11;9;
61592;PMS5003;47485;51.378;-1.342;2022-11-20T03:49:15;9;9;
61592;PMS5003;47485;51.378;-1.342;2022-11-20T03:51:42;11;10;
61592;PMS5003;47485;51.378;-1.342;2022-11-20T03:54:09;10;8;
61592;PMS5003;47485;51.378;-1.342;2022-11-20T03:56:36;13;9;
61592;PMS5003;47485;51.378;-1.342;2022-11-20T03:59:04;9;9;
61592;PMS5003;47485;51.378;-1.342;2022-11-20T04:01:33;8;6;
61592;PMS5003;47485;51.378;-1.342;2022-11-20T04:04:01;8;7;
61592;PMS5003;47485;51.378;-1.342;2022-11-20T04:06:29;9;9;
61592;PMS5003;47485;51.378;-1.342;2022-11-20T04:08:59;7;5;
61592;PMS5003;47485;51.378;-1.342;2022-11-20T04:11:27;8;8;
61592;PMS5003;47485;51.378;-1.342;2022-11-20T04:13:56;6;5;
61592;PMS5003;47485;51.378;-1.342;2022-11-20T04:16:24;7;7;
61592;PMS5003;47485;51.378;-1.342;2022-11-20T04:18:52;8;8;
61592;PMS5003;47485;51.378;-1.342;2022-11-20T04:21:20;8;7;
61592;PMS5003;47485;51.378;-1.342;2022-11-20T04:23:48;6;5;
61592;PMS5003;47485;51.378;-1.342;2022-11-20T04:26:14;5;5;
61592;PMS5003;47485;51.378;-1.342;2022-11-20T04:28:41;5;5;
61592;PMS5003;47485;51.378;-1.342;2022-11-20T04:31:09;3;3;
61592;PMS5003;47485;51.378;-1.342;2022-11-20T04:33:37;6;4;
61592;PMS5003;47485;51.378;-1.342;2022-11-20T04:36:05;3;3;
61592;PMS5003;47485;51.378;-1.342;2022-11-20T04:38:33;1;1;
61592;PMS5003;47485;51.378;-1.342;2022-11-20T04:41:01;6;4;
61592;PMS5003;47485;51.378;-1.342;2022-11-20T04:43:31;5;3;
61592;PMS5003;47485;51.378;-1.342;2022-11-20T04:46:00;3;3;
61592;PMS5003;47485;51.378;-1.342;2022-11-20T04:48:27;5;4;
61592;PMS5003;47485;51.378;-1.342;2022-11-20T04:50:55;1;1;
61592;PMS5003;47485;51.378;-1.342;2022-11-20T04:53:22;2;2;
61592;PMS5003;47485;51.378;-1.342;2022-11-20T04:55:50;1;1;
61592;PMS5003;47485;51.378;-1.342;2022-11-20T04:58:17;3;3;
61592;PMS5003;47485;51.378;-1.342;2022-11-20T05:00:44;2;2;
61592;PMS5003;47485;51.378;-1.342;2022-11-20T05:03:11;3;3;
61592;PMS5003;47485;51.378;-1.342;2022-11-20T05:05:38;4;3;
61592;PMS5003;47485;51.378;-1.342;2022-11-20T05:08:05;4;3;
61592;PMS5003;47485;51.378;-1.342;2022-11-20T05:10:31;3;3;
61592;PMS5003;47485;51.378;-1.342;2022-11-20T05:12:58;4;3;
61592;PMS5003;47485;51.378;-1.342;2022-11-20T05:15:25;2;2;
61592;PMS5003;47485;51.378;-1.342;2022-11-20T05:17:52;2;1;
61592;PMS5003;47485;51.378;-1.342;2022-11-20T05:20:19;1;1;
61592;PMS5003;47485;51.378;-1.342;2022-11-20T05:22:46;3;2;
61592;PMS5003;47485;51.378;-1.342;2022-11-20T05:25:13;4;2;
61592;PMS5003;47485;51.378;-1.342;2022-11-20T05:27:40;3;3;
61592;PMS5003;47485;51.378;-1.342;2022-11-20T05:30:08;7;4;
61592;PMS5003;47485;51.378;-1.342;2022-11-20T05:32:36;3;3;
61592;PMS5003;47485;51.378;-1.342;2022-11-20T05:35:03;3;2;
61592;PMS5003;47485;51.378;-1.342;2022-11-20T05:37:30;4;4;
61592;PMS5003;47485;51.378;-1.342;2022-11-20T05:39:57;2;2;
61592;PMS5003;47485;51.378;-1.342;2022-11-20T05:42:24;3;3;
61592;PMS5003;47485;51.378;-1.342;2022-11-20T05:44:51;4;4;
61592;PMS5003;47485;51.378;-1.342;2022-11-20T05:47:17;3;3;
61592;PMS5003;47485;51.378;-1.342;2022-11-20T05:49:45;2;2;
61592;PMS5003;47485;51.378;-1.342;2022-11-20T05:52:13;5;2;
61592;PMS5003;47485;51.378;-1.342;2022-11-20T05:54:39;2;2;
61592;PMS5003;47485;51.378;-1.342;2022-11-20T05:57:06;2;2;
61592;PMS5003;47485;51.378;-1.342;2022-11-20T05:59:33;2;2;
61592;PMS5003;47485;51.378;-1.342;2022-11-20T06:02:00;5;4;
61592;PMS5003;47485;51.378;-1.342;2022-11-20T06:04:26;5;4;
61592;PMS5003;47485;51.378;-1.342;2022-11-20T06:06:53;2;2;
61592;PMS5003;47485;51.378;-1.342;2022-11-20T06:09:20;3;3;
61592;PMS5003;47485;51.378;-1.342;2022-11-20T06:11:47;2;2;
61592;PMS5003;47485;51.378;-1.342;2022-11-20T06:14:14;3;3;
61592;PMS5003;47485;51.378;-1.342;2022-11-20T06:16:41;3;3;
61592;PMS5003;47485;51.378;-1.342;2022-11-20T06:19:08;4;4;
61592;PMS5003;47485;51.378;-1.342;2022-11-20T06:21:34;6;5;
61592;PMS5003;47485;51.378;-1.342;2022-11-20T06:24:01;3;3;
61592;PMS5003;47485;51.378;-1.342;2022-11-20T06:26:28;4;4;
61592;PMS5003;47485;51.378;-1.342;2022-11-20T06:28:56;2;2;
61592;PMS5003;47485;51.378;-1.342;2022-11-20T06:31:24;2;2;
61592;PMS5003;47485;51.378;-1.342;2022-11-20T06:33:52;3;3;
61592;PMS5003;47485;51.378;-1.342;2022-11-20T06:36:19;5;4;
61592;PMS5003;47485;51.378;-1.342;2022-11-20T06:38:48;6;5;
61592;PMS5003;47485;51.378;-1.342;2022-11-20T06:41:16;5;5;
61592;PMS5003;47485;51.378;-1.342;2022-11-20T06:43:46;4;4;
61592;PMS5003;47485;51.378;-1.342;2022-11-20T06:46:15;5;5;
61592;PMS5003;47485;51.378;-1.342;2022-11-20T06:48:44;5;5;
61592;PMS5003;47485;51.378;-1.342;2022-11-20T06:51:12;5;5;
61592;PMS5003;47485;51.378;-1.342;2022-11-20T06:53:40;5;4;
61592;PMS5003;47485;51.378;-1.342;2022-11-20T06:56:07;4;4;
61592;PMS5003;47485;51.378;-1.342;2022-11-20T06:58:34;5;5;
61592;PMS5003;47485;51.378;-1.342;2022-11-20T07:01:02;5;4;
61592;PMS5003;47485;51.378;-1.342;2022-11-20T07:03:30;4;4;
61592;PMS5003;47485;51.378;-1.342;2022-11-20T07:05:58;5;5;
61592;PMS5003;47485;51.378;-1.342;2022-11-20T07:08:26;4;3;
61592;PMS5003;47485;51.378;-1.342;2022-11-20T07:10:56;3;3;
61592;PMS5003;47485;51.378;-1.342;2022-11-20T07:13:24;4;3;
61592;PMS5003;47485;51.378;-1.342;2022-11-20T07:15:50;4;4;
61592;PMS5003;47485;51.378;-1.342;2022-11-20T07:18:17;4;3;
61592;PMS5003;47485;51.378;-1.342;2022-11-20T07:20:44;3;3;
61592;PMS5003;47485;51.378;-1.342;2022-11-20T07:23:12;4;3;
61592;PMS5003;47485;51.378;-1.342;2022-11-20T07:25:39;4;3;
61592;PMS5003;47485;51.378;-1.342;2022-11-20T07:28:05;5;3;
61592;PMS5003;47485;51.378;-1.342;2022-11-20T07:30:32;3;3;
61592;PMS5003;47485;51.378;-1.342;2022-11-20T07:32:59;4;4;
61592;PMS5003;47485;51.378;-1.342;2022-11-20T07:35:26;2;2;
61592;PMS5003;47485;51.378;-1.342;2022-11-20T07:37:53;7;3;
61592;PMS5003;47485;51.378;-1.342;2022-11-20T07:40:20;4;3;
61592;PMS5003;47485;51.378;-1.342;2022-11-20T07:42:47;4;4;
61592;PMS5003;47485;51.378;-1.342;2022-11-20T07:45:15;3;2;
61592;PMS5003;47485;51.378;-1.342;2022-11-20T07:47:42;3;3;
61592;PMS5003;47485;51.378;-1.342;2022-11-20T07:50:09;3;3;
61592;PMS5003;47485;51.378;-1.342;2022-11-20T07:52:35;6;3;
61592;PMS5003;47485;51.378;-1.342;2022-11-20T07:55:02;2;1;
61592;PMS5003;47485;51.378;-1.342;2022-11-20T07:57:30;2;2;
61592;PMS5003;47485;51.378;-1.342;2022-11-20T07:59:56;4;2;
61592;PMS5003;47485;51.378;-1.342;2022-11-20T08:02:23;4;4;
61592;PMS5003;47485;51.378;-1.342;2022-11-20T08:04:50;1;1;
61592;PMS5003;47485;51.378;-1.342;2022-11-20T08:07:16;3;3;
61592;PMS5003;47485;51.378;-1.342;2022-11-20T08:09:43;3;3;
61592;PMS5003;47485;51.378;-1.342;2022-11-20T08:12:15;5;4;
61592;PMS5003;47485;51.378;-1.342;2022-11-20T08:14:45;3;3;
61592;PMS5003;47485;51.378;-1.342;2022-11-20T08:17:12;9;5;
61592;PMS5003;47485;51.378;-1.342;2022-11-20T08:19:39;4;4;
61592;PMS5003;47485;51.378;-1.342;2022-11-20T08:22:06;5;3;
61592;PMS5003;47485;51.378;-1.342;2022-11-20T08:24:33;5;3;
61592;PMS5003;47485;51.378;-1.342;2022-11-20T08:27:00;5;4;
61592;PMS5003;47485;51.378;-1.342;2022-11-20T08:29:26;4;3;
61592;PMS5003;47485;51.378;-1.342;2022-11-20T08:31:53;1;1;
61592;PMS5003;47485;51.378;-1.342;2022-11-20T08:34:20;3;3;
61592;PMS5003;47485;51.378;-1.342;2022-11-20T08:36:47;4;3;
61592;PMS5003;47485;51.378;-1.342;2022-11-20T08:39:14;5;3;
61592;PMS5003;47485;51.378;-1.342;2022-11-20T08:41:41;2;2;
61592;PMS5003;47485;51.378;-1.342;2022-11-20T08:44:08;3;3;
61592;PMS5003;47485;51.378;-1.342;2022-11-20T08:46:35;6;3;
61592;PMS5003;47485;51.378;-1.342;2022-11-20T08:49:03;1;1;
61592;PMS5003;47485;51.378;-1.342;2022-11-20T08:51:30;14;11;
61592;PMS5003;47485;51.378;-1.342;2022-11-20T08:53:57;5;3;
61592;PMS5003;47485;51.378;-1.342;2022-11-20T08:56:23;13;5;
61592;PMS5003;47485;51.378;-1.342;2022-11-20T08:58:51;8;3;
61592;PMS5003;47485;51.378;-1.342;2022-11-20T09:01:18;2;2;
61592;PMS5003;47485;51.378;-1.342;2022-11-20T09:03:46;6;3;
61592;PMS5003;47485;51.378;-1.342;2022-11-20T09:06:14;14;11;
61592;PMS5003;47485;51.378;-1.342;2022-11-20T09:08:42;8;4;
61592;PMS5003;47485;51.378;-1.342;2022-11-20T09:11:10;5;3;
61592;PMS5003;47485;51.378;-1.342;2022-11-20T09:13:38;5;5;
61592;PMS5003;47485;51.378;-1.342;2022-11-20T09:16:06;7;6;
61592;PMS5003;47485;51.378;-1.342;2022-11-20T09:18:35;5;3;
61592;PMS5003;47485;51.378;-1.342;2022-11-20T09:21:03;6;3;
61592;PMS5003;47485;51.378;-1.342;2022-11-20T09:23:33;10;10;
61592;PMS5003;47485;51.378;-1.342;2022-11-20T09:26:02;6;3;
61592;PMS5003;47485;51.378;-1.342;2022-11-20T09:28:31;6;3;
61592;PMS5003;47485;51.378;-1.342;2022-11-20T09:30:58;6;5;
61592;PMS5003;47485;51.378;-1.342;2022-11-20T09:33:25;9;6;
61592;PMS5003;47485;51.378;-1.342;2022-11-20T09:35:51;9;4;
61592;PMS5003;47485;51.378;-1.342;2022-11-20T09:38:18;9;4;
61592;PMS5003;47485;51.378;-1.342;2022-11-20T09:40:46;10;5;
61592;PMS5003;47485;51.378;-1.342;2022-11-20T09:43:24;4;3;
61592;PMS5003;47485;51.378;-1.342;2022-11-20T09:46:04;7;4;
61592;PMS5003;47485;51.378;-1.342;2022-11-20T09:48:44;6;3;
61592;PMS5003;47485;51.378;-1.342;2022-11-20T09:51:27;9;5;
61592;PMS5003;47485;51.378;-1.342;2022-11-20T09:54:05;10;3;
61592;PMS5003;47485;51.378;-1.342;2022-11-20T09:56:41;4;4;
61592;PMS5003;47485;51.378;-1.342;2022-11-20T09:59:15;9;5;
61592;PMS5003;47485;51.378;-1.342;2022-11-20T10:01:53;7;5;
61592;PMS5003;47485;51.378;-1.342;2022-11-20T10:04:21;6;5;
61592;PMS5003;47485;51.378;-1.342;2022-11-20T10:06:50;9;5;
61592;PMS5003;47485;51.378;-1.342;2022-11-20T10:09:23;9;5;
61592;PMS5003;47485;51.378;-1.342;2022-11-20T10:11:58;9;6;
61592;PMS5003;47485;51.378;-1.342;2022-11-20T10:14:40;12;7;
61592;PMS5003;47485;51.378;-1.342;2022-11-20T10:17:20;7;3;
61592;PMS5003;47485;51.378;-1.342;2022-11-20T10:19:57;9;3;
61592;PMS5003;47485;51.378;-1.342;2022-11-20T10:22:44;6;4;
61592;PMS5003;47485;51.378;-1.342;2022-11-20T10:25:20;9;3;
61592;PMS5003;47485;51.378;-1.342;2022-11-20T10:28:10;10;4;
61592;PMS5003;47485;51.378;-1.342;2022-11-20T10:30:50;5;3;
61592;PMS5003;47485;51.378;-1.342;2022-11-20T10:33:24;9;4;
61592;PMS5003;47485;51.378;-1.342;2022-11-20T10:36:02;12;5;
61592;PMS5003;47485;51.378;-1.342;2022-11-20T10:38:36;7;3;
61592;PMS5003;47485;51.378;-1.342;2022-11-20T10:41:06;8;5;
61592;PMS5003;47485;51.378;-1.342;2022-11-20T10:43:38;5;4;
61592;PMS5003;47485;51.378;-1.342;2022-11-20T10:46:12;8;2;
61592;PMS5003;47485;51.378;-1.342;2022-11-20T10:48:41;12;7;
61592;PMS5003;47485;51.378;-1.342;2022-11-20T10:51:13;11;4;
61592;PMS5003;47485;51.378;-1.342;2022-11-20T10:53:53;9;5;
61592;PMS5003;47485;51.378;-1.342;2022-11-20T10:56:25;4;2;
61592;PMS5003;47485;51.378;-1.342;2022-11-20T10:59:19;8;5;
61592;PMS5003;47485;51.378;-1.342;2022-11-20T11:01:59;10;7;
61592;PMS5003;47485;51.378;-1.342;2022-11-20T11:04:30;6;3;
61592;PMS5003;47485;51.378;-1.342;2022-11-20T11:07:05;11;10;
61592;PMS5003;47485;51.378;-1.342;2022-11-20T11:09:37;10;7;
61592;PMS5003;47485;51.378;-1.342;2022-11-20T11:12:07;12;8;
61592;PMS5003;47485;51.378;-1.342;2022-11-20T11:14:52;7;5;
61592;PMS5003;47485;51.378;-1.342;2022-11-20T11:17:21;7;5;
61592;PMS5003;47485;51.378;-1.342;2022-11-20T11:20:07;13;5;
61592;PMS5003;47485;51.378;-1.342;2022-11-20T11:22:43;10;2;
61592;PMS5003;47485;51.378;-1.342;2022-11-20T11:25:18;8;3;
61592;PMS5003;47485;51.378;-1.342;2022-11-20T11:27:48;4;3;
61592;PMS5003;47485;51.378;-1.342;2022-11-20T11:30:16;10;6;
61592;PMS5003;47485;51.378;-1.342;2022-11-20T11:32:45;6;4;
61592;PMS5003;47485;51.378;-1.342;2022-11-20T11:35:21;8;3;
61592;PMS5003;47485;51.378;-1.342;2022-11-20T11:37:50;8;5;
61592;PMS5003;47485;51.378;-1.342;2022-11-20T11:40:18;7;4;
61592;PMS5003;47485;51.378;-1.342;2022-11-20T11:42:48;5;2;
61592;PMS5003;47485;51.378;-1.342;2022-11-20T11:45:19;7;3;
61592;PMS5003;47485;51.378;-1.342;2022-11-20T11:47:47;11;4;
61592;PMS5003;47485;51.378;-1.342;2022-11-20T11:50:16;10;5;
61592;PMS5003;47485;51.378;-1.342;2022-11-20T11:52:46;7;5;
61592;PMS5003;47485;51.378;-1.342;2022-11-20T11:55:24;5;4;
61592;PMS5003;47485;51.378;-1.342;2022-11-20T11:57:57;8;4;
61592;PMS5003;47485;51.378;-1.342;2022-11-20T12:00:33;12;4;
61592;PMS5003;47485;51.378;-1.342;2022-11-20T12:03:03;10;8;
61592;PMS5003;47485;51.378;-1.342;2022-11-20T12:05:39;8;5;
61592;PMS5003;47485;51.378;-1.342;2022-11-20T12:08:11;9;5;
61592;PMS5003;47485;51.378;-1.342;2022-11-20T12:10:44;5;4;
61592;PMS5003;47485;51.378;-1.342;2022-11-20T12:13:20;7;2;
61592;PMS5003;47485;51.378;-1.342;2022-11-20T12:15:57;6;4;
61592;PMS5003;47485;51.378;-1.342;2022-11-20T12:18:24;4;3;
61592;PMS5003;47485;51.378;-1.342;2022-11-20T12:20:55;8;6;
61592;PMS5003;47485;51.378;-1.342;2022-11-20T12:23:35;8;6;
61592;PMS5003;47485;51.378;-1.342;2022-11-20T12:26:13;8;7;
61592;PMS5003;47485;51.378;-1.342;2022-11-20T12:28:52;6;4;
61592;PMS5003;47485;51.378;-1.342;2022-11-20T12:31:29;11;3;
61592;PMS5003;47485;51.378;-1.342;2022-11-20T12:34:16;11;8;
61592;PMS5003;47485;51.378;-1.342;2022-11-20T12:36:53;6;2;
61592;PMS5003;47485;51.378;-1.342;2022-11-20T12:39:30;2;2;
61592;PMS5003;47485;51.378;-1.342;2022-11-20T12:42:05;7;2;
61592;PMS5003;47485;51.378;-1.342;2022-11-20T12:44:46;6;5;
61592;PMS5003;47485;51.378;-1.342;2022-11-20T12:47:29;7;5;
61592;PMS5003;47485;51.378;-1.342;2022-11-20T12:50:06;7;3;
61592;PMS5003;47485;51.378;-1.342;2022-11-20T12:52:43;4;4;
61592;PMS5003;47485;51.378;-1.342;2022-11-20T12:55:17;5;4;
61592;PMS5003;47485;51.378;-1.342;2022-11-20T12:57:54;5;5;
61592;PMS5003;47485;51.378;-1.342;2022-11-20T13:00:28;7;4;
61592;PMS5003;47485;51.378;-1.342;2022-11-20T13:03:03;7;3;
61592;PMS5003;47485;51.378;-1.342;2022-11-20T13:05:41;5;3;
61592;PMS5003;47485;51.378;-1.342;2022-11-20T13:08:20;4;1;
61592;PMS5003;47485;51.378;-1.342;2022-11-20T13:10:50;4;2;
61592;PMS5003;47485;51.378;-1.342;2022-11-20T13:13:25;5;3;
61592;PMS5003;47485;51.378;-1.342;2022-11-20T13:16:00;6;3;
61592;PMS5003;47485;51.378;-1.342;2022-11-20T13:18:37;7;4;
61592;PMS5003;47485;51.378;-1.342;2022-11-20T13:21:13;3;3;
61592;PMS5003;47485;51.378;-1.342;2022-11-20T13:23:41;6;1;
61592;PMS5003;47485;51.378;-1.342;2022-11-20T13:26:15;7;4;
61592;PMS5003;47485;51.378;-1.342;2022-11-20T13:28:44;7;3;
61592;PMS5003;47485;51.378;-1.342;2022-11-20T13:31:23;4;2;
61592;PMS5003;47485;51.378;-1.342;2022-11-20T13:33:54;6;3;
61592;PMS5003;47485;51.378;-1.342;2022-11-20T13:36:23;5;3;
61592;PMS5003;47485;51.378;-1.342;2022-11-20T13:38:52;5;2;
61592;PMS5003;47485;51.378;-1.342;2022-11-20T13:41:24;9;4;
61592;PMS5003;47485;51.378;-1.342;2022-11-20T13:43:54;5;2;
61592;PMS5003;47485;51.378;-1.342;2022-11-20T13:46:34;6;5;
61592;PMS5003;47485;51.378;-1.342;2022-11-20T13:49:06;5;2;
61592;PMS5003;47485;51.378;-1.342;2022-11-20T13:51:35;1;1;
61592;PMS5003;47485;51.378;-1.342;2022-11-20T13:54:14;1;1;
61592;PMS5003;47485;51.378;-1.342;2022-11-20T13:56:58;8;4;
61592;PMS5003;47485;51.378;-1.342;2022-11-20T13:59:36;6;2;
61592;PMS5003;47485;51.378;-1.342;2022-11-20T14:02:13;4;3;
61592;PMS5003;47485;51.378;-1.342;2022-11-20T14:04:43;6;2;
61592;PMS5003;47485;51.378;-1.342;2022-11-20T14:07:13;9;7;
61592;PMS5003;47485;51.378;-1.342;2022-11-20T14:09:49;4;4;
61592;PMS5003;47485;51.378;-1.342;2022-11-20T14:12:18;3;3;
61592;PMS5003;47485;51.378;-1.342;2022-11-20T14:14:49;4;2;
61592;PMS5003;47485;51.378;-1.342;2022-11-20T14:17:19;6;5;
61592;PMS5003;47485;51.378;-1.342;2022-11-20T14:19:48;5;2;
61592;PMS5003;47485;51.378;-1.342;2022-11-20T14:22:18;9;5;
61592;PMS5003;47485;51.378;-1.342;2022-11-20T14:25:00;5;4;
61592;PMS5003;47485;51.378;-1.342;2022-11-20T14:27:29;7;4;
61592;PMS5003;47485;51.378;-1.342;2022-11-20T14:30:00;5;3;
61592;PMS5003;47485;51.378;-1.342;2022-11-20T14:32:27;5;2;
61592;PMS5003;47485;51.378;-1.342;2022-11-20T14:34:58;6;3;
61592;PMS5003;47485;51.378;-1.342;2022-11-20T14:37:28;4;4;
61592;PMS5003;47485;51.378;-1.342;2022-11-20T14:39:59;12;5;
61592;PMS5003;47485;51.378;-1.342;2022-11-20T14:42:27;12;8;
61592;PMS5003;47485;51.378;-1.342;2022-11-20T14:44:56;4;3;
61592;PMS5003;47485;51.378;-1.342;2022-11-20T14:47:24;4;3;
61592;PMS5003;47485;51.378;-1.342;2022-11-20T14:49:53;5;2;
61592;PMS5003;47485;51.378;-1.342;2022-11-20T14:52:22;4;1;
61592;PMS5003;47485;51.378;-1.342;2022-11-20T14:54:51;3;3;
61592;PMS5003;47485;51.378;-1.342;2022-11-20T14:57:21;10;9;
61592;PMS5003;47485;51.378;-1.342;2022-11-20T15:00:03;5;3;
61592;PMS5003;47485;51.378;-1.342;2022-11-20T15:02:32;6;4;
61592;PMS5003;47485;51.378;-1.342;2022-11-20T15:05:00;2;2;
61592;PMS5003;47485;51.378;-1.342;2022-11-20T15:07:28;2;2;
61592;PMS5003;47485;51.378;-1.342;2022-11-20T15:09:59;5;2;
61592;PMS5003;47485;51.378;-1.342;2022-11-20T15:12:26;2;2;
61592;PMS5003;47485;51.378;-1.342;2022-11-20T15:14:53;2;1;
61592;PMS5003;47485;51.378;-1.342;2022-11-20T15:17:20;4;3;
61592;PMS5003;47485;51.378;-1.342;2022-11-20T15:19:47;5;5;
61592;PMS5003;47485;51.378;-1.342;2022-11-20T15:22:15;2;2;
61592;PMS5003;47485;51.378;-1.342;2022-11-20T15:24:41;5;3;
61592;PMS5003;47485;51.378;-1.342;2022-11-20T15:27:08;6;3;
61592;PMS5003;47485;51.378;-1.342;2022-11-20T15:29:36;2;2;
61592;PMS5003;47485;51.378;-1.342;2022-11-20T15:32:03;5;4;
61592;PMS5003;47485;51.378;-1.342;2022-11-20T15:34:29;5;3;
61592;PMS5003;47485;51.378;-1.342;2022-11-20T15:36:56;6;3;
61592;PMS5003;47485;51.378;-1.342;2022-11-20T15:39:23;1;1;
61592;PMS5003;47485;51.378;-1.342;2022-11-20T15:41:50;1;1;
61592;PMS5003;47485;51.378;-1.342;2022-11-20T15:44:16;0;0;
61592;PMS5003;47485;51.378;-1.342;2022-11-20T15:46:43;2;0;
61592;PMS5003;47485;51.378;-1.342;2022-11-20T15:49:11;0;0;
61592;PMS5003;47485;51.378;-1.342;2022-11-20T15:51:39;3;1;
61592;PMS5003;47485;51.378;-1.342;2022-11-20T15:54:10;6;4;
61592;PMS5003;47485;51.378;-1.342;2022-11-20T15:56:38;2;0;
61592;PMS5003;47485;51.378;-1.342;2022-11-20T15:59:05;1;1;
61592;PMS5003;47485;51.378;-1.342;2022-11-20T16:01:32;3;0;
61592;PMS5003;47485;51.378;-1.342;2022-11-20T16:03:58;0;0;
61592;PMS5003;47485;51.378;-1.342;2022-11-20T16:06:25;2;1;
61592;PMS5003;47485;51.378;-1.342;2022-11-20T16:08:52;3;2;
61592;PMS5003;47485;51.378;-1.342;2022-11-20T16:11:19;4;3;
61592;PMS5003;47485;51.378;-1.342;2022-11-20T16:13:46;3;2;
61592;PMS5003;47485;51.378;-1.342;2022-11-20T16:16:17;5;2;
61592;PMS5003;47485;51.378;-1.342;2022-11-20T16:18:47;3;2;
61592;PMS5003;47485;51.378;-1.342;2022-11-20T16:21:14;3;2;
61592;PMS5003;47485;51.378;-1.342;2022-11-20T16:23:42;8;8;
61592;PMS5003;47485;51.378;-1.342;2022-11-20T16:26:09;3;1;
61592;PMS5003;47485;51.378;-1.342;2022-11-20T16:28:36;8;6;
61592;PMS5003;47485;51.378;-1.342;2022-11-20T16:31:07;9;6;
61592;PMS5003;47485;51.378;-1.342;2022-11-20T16:33:35;3;3;
61592;PMS5003;47485;51.378;-1.342;2022-11-20T16:36:06;5;5;
61592;PMS5003;47485;51.378;-1.342;2022-11-20T16:38:34;3;3;
61592;PMS5003;47485;51.378;-1.342;2022-11-20T16:41:01;3;2;
61592;PMS5003;47485;51.378;-1.342;2022-11-20T16:43:28;3;1;
61592;PMS5003;47485;51.378;-1.342;2022-11-20T16:45:55;4;1;